• Join FlightAware (Why Join?)
  • Login
  • US Flag 
01:38PM EDT


 

Airport Tracker/Info


-or-


 

Live Flight TrackerFlight Track Log ✈ UAL4202 ✈ 14-Apr-2013 ✈ KEWR - KSTL

Flight Track Log - Related Links

Times and Time Zones

All times are in EDT time to prevent confusion due to time zone crossing. See the UAL4202 flight status page for this flight to view local times or setup timezone preferences in your user account.

Time Position Orientation Groundspeed Altitude Reporting Facility
EDT Latitude Longitude Course Direction KTS MPH feet Rate Location/Type
05:26PM 40.7167 -74.1500 49° Northeast 170 196 1,300  Level New York TRACON
05:27PM 40.7500 -74.1000 49° Northeast 213 245 3,300 1,860 Climbing New York TRACON
05:28PM 40.7833 -74.1333 323° Northwest 234 269 5,100 2,160 Climbing New York TRACON
05:29PM 40.7667 -74.2167 255° West 238 274 7,700 1,620 Climbing New York TRACON
05:30PM 40.7500 -74.2833 252° West 232 267 8,400 1,440 Climbing New York TRACON
05:32PM 40.7589 -74.4339 275° West 224 258 12,000 1,620 Climbing New York Center
05:33PM 40.7733 -74.5114 284° West 234 269 13,300 1,140 Climbing New York Center
05:34PM 40.7781 -74.6158 273° West 260 299 14,400 900 Climbing New York Center
05:35PM 40.7831 -74.7231 274° West 282 325 15,100 720 Climbing New York Center
05:36PM 40.7894 -74.8383 274° West 314 361 15,900 960 Climbing New York Center
05:37PM 40.7958 -74.9567 274° West 319 367 17,100 960 Climbing New York Center
05:38PM 40.7811 -75.0736 261° West 319 367 17,800 900 Climbing New York Center
05:39PM 40.7547 -75.1653 249° West 331 381 18,900 1,320 Climbing New York Center
05:40PM 40.7147 -75.2858 246° West 336 387 20,500 1,500 Climbing New York Center
05:41PM 40.6833 -75.3986 250° West 336 387 22,000 1,500 Climbing New York Center
05:42PM 40.6500 -75.5086 248° West 336 387 23,500 1,440 Climbing New York Center
05:43PM 40.6164 -75.6156 248° West 331 381 24,900 1,200 Climbing New York Center
05:44PM 40.5847 -75.7281 250° West 326 375 26,000 1,020 Climbing New York Center
05:45PM 40.5486 -75.8375 247° West 326 375 27,000 1,020 Climbing New York Center
05:46PM 40.5078 -75.9628 247° West 326 375 28,100 1,020 Climbing New York Center
05:47PM 40.4736 -76.0750 248° West 326 375 29,100 960 Climbing New York Center
05:48PM 40.4372 -76.1867 247° West 332 382 30,000 420 Climbing New York Center
05:49PM 40.4006 -76.3064 248° West 343 395 30,000  Level New York Center
05:50PM 40.3636 -76.4261 248° West 355 409 30,000  Level New York Center
05:51PM 40.3222 -76.5481 246° West 360 414 30,000  Level New York Center
05:52PM 40.2747 -76.6636 242° Southwest 365 420 30,000  Level New York Center
05:53PM 40.2294 -76.7767 242° Southwest 365 420 30,000  Level New York Center
05:54PM 40.1819 -76.8894 241° Southwest 359 413 30,000  Level New York Center
05:55PM 40.1631 -77.0128 259° West 347 399 30,000  Level New York Center
05:56PM 40.1628 -77.1350 270° West 347 399 30,000  Level New York Center
05:57PM 40.1578 -77.2650 267° West 352 405 30,000  Level New York Center
05:58PM 40.1583 -77.4833 270° West 353 406 30,000  Level Cleveland Center
05:59PM 40.1533 -77.6114 267° West 353 406 30,000 600 Level Cleveland Center
06:00PM 40.1506 -77.7472 269° West 346 398 31,200 960 Climbing Cleveland Center
06:01PM 40.1472 -77.8589 268° West 332 382 32,000 360 Climbing Cleveland Center
06:02PM 40.1394 -77.9731 265° West 327 376 32,000 600 Level Cleveland Center
06:03PM 40.1358 -78.0900 268° West 327 376 33,200 1,260 Climbing Cleveland Center
06:04PM 40.1319 -78.1989 267° West 322 371 34,600 1,320 Climbing Cleveland Center
06:05PM 40.1300 -78.3075 269° West 311 358 35,900 660 Climbing Cleveland Center
06:06PM 40.1258 -78.4192 267° West 306 352 36,000  Climbing Cleveland Center
06:07PM 40.1217 -78.5306 267° West 311 358 36,000  Level Cleveland Center
06:08PM 40.1175 -78.6500 267° West 322 371 36,000  Level Cleveland Center
06:09PM 40.1111 -78.7669 266° West 327 376 36,000  Level Cleveland Center
06:10PM 40.1086 -78.8839 268° West 327 376 36,000  Level Cleveland Center
06:11PM 40.1019 -78.9981 266° West 327 376 36,000  Level Cleveland Center
06:12PM 40.0972 -79.1119 267° West 327 376 36,000  Level Cleveland Center
06:13PM 40.0925 -79.2236 267° West 327 376 36,000  Level Cleveland Center
06:14PM 40.0914 -79.3267 269° West 327 376 36,000  Level Cleveland Center
06:15PM 40.0886 -79.4433 268° West 327 376 36,000  Level Cleveland Center
06:16PM 40.0833 -79.5575 267° West 327 376 36,000  Level Cleveland Center
06:17PM 40.0781 -79.6742 267° West 327 376 36,000  Level Cleveland Center
06:18PM 40.0728 -79.7881 267° West 327 376 36,000  Level Cleveland Center
06:19PM 40.0672 -79.9075 267° West 327 376 36,000  Level Cleveland Center
06:20PM 40.0594 -80.0242 265° West 327 376 36,000  Level Cleveland Center
06:21PM 40.0539 -80.1464 267° West 332 382 36,000  Level Cleveland Center
06:22PM 40.0500 -80.2658 268° West 332 382 36,000  Level Cleveland Center
06:23PM 40.0419 -80.3986 266° West 332 382 36,000  Level Cleveland Center
06:26PM 40.0247 -80.6611 265° West 338 389 36,000  Level Indianapolis Center
06:27PM 40.0172 -80.7839 265° West 338 389 36,000  Level Indianapolis Center
06:28PM 40.0156 -80.9050 269° West 334 384 36,000  Level Indianapolis Center
06:29PM 40.0136 -81.0253 269° West 331 381 36,000  Level Indianapolis Center
06:30PM 40.0119 -81.1456 269° West 329 379 36,000  Level Indianapolis Center
06:31PM 40.0106 -81.2850 269° West 328 377 36,000  Level Indianapolis Center
06:32PM 40.0072 -81.4067 268° West 332 382 36,000  Level Indianapolis Center
06:33PM 40.0053 -81.5286 269° West 332 382 36,000  Level Indianapolis Center
06:34PM 39.9986 -81.6506 266° West 335 386 36,000  Level Indianapolis Center
06:35PM 39.9903 -81.7722 265° West 335 386 36,000  Level Indianapolis Center
06:36PM 39.9817 -81.8969 265° West 338 389 36,000  Level Indianapolis Center
06:37PM 39.9736 -82.0192 265° West 336 387 36,000  Level Indianapolis Center
06:38PM 39.9647 -82.1433 265° West 340 391 36,000  Level Indianapolis Center
06:39PM 39.9556 -82.2869 265° West 339 390 36,000  Level Indianapolis Center
06:40PM 39.9458 -82.4108 264° West 340 391 36,000  Level Indianapolis Center
06:41PM 39.9367 -82.5353 265° West 343 395 36,000  Level Indianapolis Center
06:42PM 39.9278 -82.6594 265° West 342 394 36,000  Level Indianapolis Center
06:43PM 39.9181 -82.7850 264° West 345 397 36,000  Level Indianapolis Center
06:44PM 39.9081 -82.9094 264° West 343 395 36,000  Level Indianapolis Center
06:45PM 39.8983 -83.0336 264° West 344 396 36,000  Level Indianapolis Center
06:46PM 39.8864 -83.1797 264° West 344 396 36,000  Level Indianapolis Center
06:47PM 39.8769 -83.3056 264° West 347 399 36,000  Level Indianapolis Center
06:48PM 39.8672 -83.4225 264° West 347 399 36,000  Level Indianapolis Center
06:49PM 39.8572 -83.5472 264° West 346 398 36,000  Level Indianapolis Center
06:51PM 39.8431 -83.6964 263° West 352 405 36,000  Level Indianapolis Center
06:52PM 39.8333 -83.8183 264° West 342 394 36,000  Level Indianapolis Center
06:53PM 39.8242 -83.9381 264° West 331 381 36,000  Level Indianapolis Center
06:54PM 39.8136 -84.0556 263° West 325 374 36,000  Level Indianapolis Center
06:55PM 39.8028 -84.1731 263° West 326 375 36,000  Level Indianapolis Center
06:56PM 39.7919 -84.2922 263° West 330 380 36,000  Level Indianapolis Center
06:57PM 39.7814 -84.4139 264° West 335 386 36,000  Level Indianapolis Center
06:58PM 39.7686 -84.5569 263° West 340 391 36,000  Level Indianapolis Center
06:59PM 39.7564 -84.6808 263° West 343 395 36,000  Level Indianapolis Center
07:00PM 39.7442 -84.8053 263° West 344 396 36,000  Level Indianapolis Center
07:01PM 39.7322 -84.9306 263° West 347 399 36,000  Level Indianapolis Center
07:02PM 39.7200 -85.0556 263° West 346 398 36,000  Level Indianapolis Center
07:03PM 39.7072 -85.1819 263° West 348 400 36,000  Level Indianapolis Center
07:04PM 39.6947 -85.3097 263° West 353 406 36,000  Level Indianapolis Center
07:05PM 39.6828 -85.4364 263° West 352 405 36,000  Level Indianapolis Center
07:06PM 39.6669 -85.5864 262° West 356 410 36,000  Level Indianapolis Center
07:07PM 39.6567 -85.7008 263° West 357 411 36,000  Level Indianapolis Center
07:08PM 39.6425 -85.8286 262° West 357 411 36,000  Level Indianapolis Center
07:09PM 39.6281 -85.9589 262° West 362 417 36,000  Level Indianapolis Center
07:10PM 39.6125 -86.1172 263° West 367 422 36,000  Level Indianapolis Center
07:11PM 39.5983 -86.2472 262° West 366 421 36,000  Level Indianapolis Center
07:12PM 39.5833 -86.3767 261° West 371 427 36,000  Level Indianapolis Center
07:13PM 39.5692 -86.5119 262° West 372 428 36,000  Level Indianapolis Center
07:14PM 39.5544 -86.6467 262° West 376 433 36,000  Level Indianapolis Center
07:15PM 39.5397 -86.7811 262° West 377 434 36,000  Level Indianapolis Center
07:16PM 39.5242 -86.9167 262° West 381 438 36,000  Level Indianapolis Center
07:17PM 39.5050 -87.0822 262° West 387 445 36,000  Level Indianapolis Center
07:18PM 39.4892 -87.2206 262° West 389 448 36,000 -300 Level Indianapolis Center
07:19PM 39.4733 -87.3597 262° West 389 448 35,400 -1,020 Descending Indianapolis Center
07:20PM 39.4569 -87.4972 261° West 389 448 33,900 -1,980 Descending Indianapolis Center
07:21PM 39.4411 -87.6325 261° West 382 440 31,400 -2,460 Descending Indianapolis Center
07:22PM 39.4244 -87.7736 261° West 390 449 28,900 -1,980 Descending Indianapolis Center
07:23PM 39.4100 -87.8981 261° West 409 471 28,000 -720 Descending Kansas City Center
07:24PM 39.3900 -88.0478 260° West 418 481 27,700 -720 Descending Kansas City Center
07:25PM 39.3522 -88.1953 252° West 425 489 26,600 -1,020 Descending Kansas City Center
07:27PM 39.2767 -88.4789 251° West 420 483 24,600 -1,020 Descending Kansas City Center
07:28PM 39.2403 -88.6133 251° West 419 482 23,600 -1,080 Descending Kansas City Center
07:29PM 39.1964 -88.7775 251° West 408 470 22,400 -1,140 Descending Kansas City Center
07:30PM 39.1608 -88.9131 251° West 403 464 21,300 -1,380 Descending Kansas City Center
07:31PM 39.1231 -89.0522 251° West 389 448 19,700 -1,740 Descending Kansas City Center
07:32PM 39.0869 -89.1886 251° West 375 432 17,800 -1,740 Descending Kansas City Center
07:33PM 39.0772 -89.1853 165° South 376 433 17,200 -1,500 Descending FAA TRACON SMA TRACON (SMA)
07:33PM 39.0658 -89.2244 249° West 379 436 16,700 -1,500 Descending FAA TRACON SMA TRACON (SMA)
07:34PM 39.0572 -89.2647 255° West 380 437 16,200 -1,620 Descending FAA TRACON SMA TRACON (SMA)
07:34PM 39.0467 -89.3153 255° West 379 436 15,600 -1,320 Descending FAA TRACON SMA TRACON (SMA)
07:34PM 39.0367 -89.3542 252° West 376 433 15,300 -960 Descending FAA TRACON SMA TRACON (SMA)
07:35PM 39.0250 -89.4022 253° West 367 422 15,000 -480 Descending FAA TRACON SMA TRACON (SMA)
07:35PM 39.0161 -89.4406 253° West 364 419 15,000  Level FAA TRACON SMA TRACON (SMA)
07:35PM 39.0058 -89.4783 251° West 363 418 15,000  Level FAA TRACON SMA TRACON (SMA)
07:36PM 38.9975 -89.5169 254° West 364 419 15,000  Level FAA TRACON SMA TRACON (SMA)
07:36PM 38.9850 -89.5644 251° West 365 420 15,000 -300 Level FAA TRACON SMA TRACON (SMA)
07:36PM 38.9725 -89.6014 246° West 364 419 14,800 -1,080 Descending FAA TRACON SMA TRACON (SMA)
07:37PM 38.9611 -89.6383 248° West 363 418 14,300 -2,040 Descending FAA TRACON SMA TRACON (SMA)
07:37PM 38.9475 -89.6831 249° West 352 405 13,500 -2,100 Descending FAA TRACON SMA TRACON (SMA)
07:37PM 38.9361 -89.7167 246° West 339 390 12,900 -1,800 Descending FAA TRACON SMA TRACON (SMA)
07:38PM 38.9228 -89.7575 247° West 323 372 12,200 -1,560 Descending FAA TRACON SMA TRACON (SMA)
07:38PM 38.9128 -89.7875 247° West 304 350 11,800 -1,200 Descending FAA TRACON SMA TRACON (SMA)
07:38PM 38.9033 -89.8167 247° West 289 333 11,500 -1,320 Descending FAA TRACON SMA TRACON (SMA)
07:39PM 38.8947 -89.8444 248° West 276 318 11,000 -1,500 Descending FAA TRACON SMA TRACON (SMA)
07:39PM 38.8839 -89.8775 247° West 263 303 10,500 -1,380 Descending FAA TRACON SMA TRACON (SMA)
07:39PM 38.8764 -89.9031 249° West 253 291 10,100 -1,440 Descending FAA TRACON SMA TRACON (SMA)
07:40PM 38.8683 -89.9281 248° West 246 283 9,600 -1,500 Descending FAA TRACON SMA TRACON (SMA)
07:40PM 38.8581 -89.9575 246° West 235 270 9,100 -900 Descending FAA TRACON SMA TRACON (SMA)
07:40PM 38.8506 -89.9819 249° West 236 272 9,000 -180 Descending FAA TRACON SMA TRACON (SMA)
07:41PM 38.8428 -90.0069 248° West 243 280 9,000  Level FAA TRACON SMA TRACON (SMA)
07:41PM 38.8325 -90.0383 247° West 248 285 9,000  Level FAA TRACON SMA TRACON (SMA)
07:41PM 38.8247 -90.0642 249° West 250 288 9,000 -300 Level FAA TRACON SMA TRACON (SMA)
07:42PM 38.8161 -90.0892 246° West 248 285 8,800 -1,200 Descending FAA TRACON SMA TRACON (SMA)
07:42PM 38.8064 -90.1192 247° West 240 276 8,200 -1,500 Descending FAA TRACON SMA TRACON (SMA)
07:42PM 38.8000 -90.1433 251° West 233 268 7,800 -1,440 Descending FAA TRACON SMA TRACON (SMA)
07:43PM 38.8058 -90.1683 287° West 247 284 7,300 -1,920 Descending FAA TRACON SMA TRACON (SMA)
07:43PM 38.8208 -90.1978 303° West 255 293 6,500 -2,100 Descending FAA TRACON SMA TRACON (SMA)
07:43PM 38.8333 -90.2214 304° West 258 297 5,900 -2,040 Descending FAA TRACON SMA TRACON (SMA)
07:44PM 38.8458 -90.2456 304° West 264 304 5,200 -2,100 Descending FAA TRACON SMA TRACON (SMA)
07:44PM 38.8614 -90.2764 303° West 266 306 4,500 -1,500 Descending FAA TRACON SMA TRACON (SMA)
07:44PM 38.8731 -90.3000 302° West 260 299 4,200 -960 Descending FAA TRACON SMA TRACON (SMA)
07:45PM 38.8844 -90.3228 303° West 248 285 3,900 -900 Descending FAA TRACON SMA TRACON (SMA)
07:45PM 38.8975 -90.3494 302° West 232 267 3,600 -600 Descending FAA TRACON SMA TRACON (SMA)
07:45PM 38.9075 -90.3700 302° West 222 255 3,500 -180 Descending FAA TRACON SMA TRACON (SMA)
07:46PM 38.9175 -90.3883 305° West 209 241 3,500  Level FAA TRACON SMA TRACON (SMA)
07:46PM 38.9208 -90.4128 280° West 198 228 3,500  Level FAA TRACON SMA TRACON (SMA)
07:46PM 38.9108 -90.4256 225° Southwest 181 208 3,500 -360 Level FAA TRACON SMA TRACON (SMA)
07:47PM 38.8997 -90.4367 218° Southwest 165 190 3,300 -600 Descending FAA TRACON SMA TRACON (SMA)
07:47PM 38.8864 -90.4492 216° Southwest 155 178 3,100 -600 Descending FAA TRACON SMA TRACON (SMA)
07:47PM 38.8750 -90.4561 205° Southwest 149 171 2,900 -480 Descending FAA TRACON SMA TRACON (SMA)
07:48PM 38.8628 -90.4569 183° South 149 171 2,800 -480 Descending FAA TRACON SMA TRACON (SMA)
07:48PM 38.8467 -90.4528 169° South 149 171 2,600 -600 Descending FAA TRACON SMA TRACON (SMA)
07:48PM 38.8344 -90.4469 160° South 152 175 2,400 -360 Descending FAA TRACON SMA TRACON (SMA)
07:49PM 38.8231 -90.4400 155° Southeast 148 170 2,400 -180 Level FAA TRACON SMA TRACON (SMA)
07:49PM 38.8094 -90.4286 147° Southeast 150 173 2,300 -300 Descending FAA TRACON SMA TRACON (SMA)
07:49PM 38.7994 -90.4178 140° Southeast 153 176 2,200 -360 Descending FAA TRACON SMA TRACON (SMA)
07:50PM 38.7914 -90.4047 128° Southeast 154 177 2,100 -600 Descending FAA TRACON SMA TRACON (SMA)
07:50PM 38.7819 -90.3894 128° Southeast 144 166 1,800 -900 Descending FAA TRACON SMA TRACON (SMA)